createdAt,value
2017-02-28T00:00:38.631Z,938.49
2017-02-28T00:01:37.236Z,938.47
2017-02-28T00:02:39.473Z,938.43
2017-02-28T00:03:33.020Z,938.44
2017-02-28T00:04:32.918Z,938.40
2017-02-28T00:05:33.320Z,938.42
2017-02-28T00:06:38.364Z,938.37
2017-02-28T00:07:39.053Z,938.35
2017-02-28T00:08:32.786Z,938.33
2017-02-28T00:09:55.212Z,938.37
2017-02-28T00:10:29.893Z,938.36
2017-02-28T00:11:15.468Z,938.37
2017-02-28T00:12:28.531Z,938.38
2017-02-28T00:13:18.235Z,938.34
2017-02-28T00:14:13.615Z,938.32
2017-02-28T00:15:25.420Z,938.35
2017-02-28T00:16:24.788Z,938.32
2017-02-28T00:17:17.722Z,938.28
2017-02-28T00:18:29.868Z,938.25
2017-02-28T00:19:19.974Z,938.26
2017-02-28T00:20:25.812Z,938.23
2017-02-28T00:21:20.692Z,938.21
2017-02-28T00:22:17.625Z,938.20
2017-02-28T00:23:21.103Z,938.19
2017-02-28T00:24:17.826Z,938.14
2017-02-28T00:25:20.207Z,938.15
2017-02-28T00:26:19.055Z,938.11
2017-02-28T00:27:16.392Z,938.07
2017-02-28T00:28:23.356Z,938.07
2017-02-28T00:29:20.284Z,938.06
2017-02-28T00:30:22.219Z,938.03
2017-02-28T00:31:17.725Z,938.03
2017-02-28T00:32:29.808Z,938.04
2017-02-28T00:33:22.437Z,938.01
2017-02-28T00:34:25.303Z,938.05
2017-02-28T00:35:15.781Z,938.06
2017-02-28T00:36:18.749Z,938.05
2017-02-28T00:37:19.057Z,938.00
2017-02-28T00:38:32.150Z,937.99
2017-02-28T00:39:22.130Z,938.00
2017-02-28T00:40:28.101Z,937.93
2017-02-28T00:41:17.932Z,937.89
2017-02-28T00:42:20.696Z,937.92
2017-02-28T00:43:24.882Z,937.95
2017-02-28T00:44:17.318Z,937.92
2017-02-28T00:45:20.288Z,937.96
2017-02-28T00:46:26.228Z,937.95
2017-02-28T00:47:23.259Z,937.94
2017-02-28T00:48:19.468Z,937.99
2017-02-28T00:49:23.565Z,937.95
2017-02-28T00:50:20.186Z,937.90
2017-02-28T00:51:15.375Z,937.87
2017-02-28T00:52:23.975Z,937.88
2017-02-28T00:53:19.060Z,937.87
2017-02-28T00:54:28.139Z,937.86
2017-02-28T00:55:17.322Z,937.85
2017-02-28T00:56:20.493Z,937.83
2017-02-28T00:57:21.728Z,937.81
2017-02-28T00:58:17.730Z,937.73
2017-02-28T00:59:24.386Z,937.76
2017-02-28T01:00:16.911Z,937.74
2017-02-28T01:01:17.833Z,937.69
2017-02-28T01:02:28.278Z,937.68
2017-02-28T01:03:19.984Z,937.59
2017-02-28T01:04:24.080Z,937.59
2017-02-28T01:05:29.156Z,937.56
2017-02-28T01:06:33.534Z,937.54
2017-02-28T01:07:42.502Z,937.46
2017-02-28T01:08:39.303Z,937.42
2017-02-28T01:09:42.392Z,937.38
2017-02-28T01:10:39.881Z,937.36
2017-02-28T01:11:39.548Z,937.37
2017-02-28T01:12:39.112Z,937.36
2017-02-28T01:13:48.368Z,937.39
2017-02-28T01:14:44.132Z,937.40
2017-02-28T01:15:38.659Z,937.41
2017-02-28T01:16:41.275Z,937.39
2017-02-28T01:17:38.910Z,937.32
2017-02-28T01:18:39.915Z,937.29
2017-02-28T01:19:38.044Z,937.24
2017-02-28T01:20:55.672Z,937.21
2017-02-28T01:21:44.568Z,937.16
2017-02-28T01:22:47.866Z,937.11
2017-02-28T01:23:51.352Z,937.08
2017-02-28T01:24:37.744Z,937.04
2017-02-28T01:25:45.083Z,937.06
2017-02-28T01:26:38.662Z,937.01
2017-02-28T01:27:40.343Z,937.02
2017-02-28T01:28:43.484Z,937.01
2017-02-28T01:29:49.632Z,936.98
2017-02-28T01:30:40.584Z,936.99
2017-02-28T01:31:39.227Z,936.98
2017-02-28T01:32:38.525Z,936.94
2017-02-28T01:33:39.766Z,936.98
2017-02-28T01:34:48.533Z,936.98
2017-02-28T01:35:44.160Z,936.97
2017-02-28T01:36:40.703Z,936.91
2017-02-28T01:37:42.912Z,936.91
2017-02-28T01:38:39.205Z,936.89
2017-02-28T01:39:42.132Z,936.81
2017-02-28T01:40:38.032Z,936.76
2017-02-28T01:41:37.298Z,936.78
2017-02-28T01:42:31.972Z,936.76
2017-02-28T01:43:35.352Z,936.73
2017-02-28T01:44:31.063Z,936.68
2017-02-28T01:45:30.440Z,936.73
2017-02-28T01:46:32.588Z,936.66
2017-02-28T01:47:39.386Z,936.66
2017-02-28T01:48:20.402Z,936.60
2017-02-28T01:49:25.806Z,936.64
2017-02-28T01:50:26.358Z,936.60
2017-02-28T01:51:33.557Z,936.63
2017-02-28T01:52:28.288Z,936.57
2017-02-28T01:53:37.813Z,936.55
2017-02-28T01:54:33.413Z,936.56
2017-02-28T01:55:37.435Z,936.55
2017-02-28T01:57:48.231Z,936.57
2017-02-28T01:58:53.419Z,936.52
2017-02-28T01:59:42.685Z,936.53
2017-02-28T02:00:47.059Z,936.53
2017-02-28T02:01:39.502Z,936.53
2017-02-28T02:02:40.919Z,936.50
2017-02-28T02:03:40.514Z,936.49
2017-02-28T02:04:36.729Z,936.47
2017-02-28T02:05:51.161Z,936.43
2017-02-28T02:06:37.334Z,936.44
2017-02-28T02:07:41.193Z,936.41
2017-02-28T02:08:33.487Z,936.35
2017-02-28T02:09:40.028Z,936.36
2017-02-28T02:10:33.538Z,936.30
2017-02-28T02:11:33.539Z,936.27
2017-02-28T02:12:40.592Z,936.26
2017-02-28T02:13:24.709Z,936.22
2017-02-28T02:14:35.911Z,936.20
2017-02-28T02:15:40.067Z,936.18
2017-02-28T02:16:33.678Z,936.14
2017-02-28T02:17:32.676Z,936.13
2017-02-28T02:18:28.484Z,936.12
2017-02-28T02:19:37.759Z,936.04
2017-02-28T02:20:29.010Z,935.94
2017-02-28T02:21:29.009Z,935.89
2017-02-28T02:22:27.768Z,935.79
2017-02-28T02:23:26.069Z,935.70
2017-02-28T02:24:16.722Z,935.66
2017-02-28T02:25:23.174Z,935.57
2017-02-28T02:26:25.809Z,935.53
2017-02-28T02:27:32.083Z,935.47
2017-02-28T02:28:24.403Z,935.44
2017-02-28T02:29:20.950Z,935.39
2017-02-28T02:30:34.258Z,935.35
2017-02-28T02:31:33.157Z,935.33
2017-02-28T02:32:37.850Z,935.21
2017-02-28T02:33:32.392Z,935.19
2017-02-28T02:34:38.047Z,935.18
2017-02-28T02:35:43.071Z,935.18
2017-02-28T02:36:43.768Z,935.26
2017-02-28T02:37:42.185Z,935.23
2017-02-28T02:38:50.844Z,935.34
2017-02-28T02:39:44.498Z,935.28
2017-02-28T02:40:43.457Z,935.24
2017-02-28T02:41:40.087Z,935.25
2017-02-28T02:42:46.311Z,935.28
2017-02-28T02:44:05.080Z,935.27
2017-02-28T02:44:45.979Z,935.29
2017-02-28T02:45:44.234Z,935.32
2017-02-28T02:46:39.785Z,935.31
2017-02-28T02:47:49.490Z,935.35
2017-02-28T02:48:43.085Z,935.35
2017-02-28T02:49:48.179Z,935.33
2017-02-28T02:50:38.081Z,935.34
2017-02-28T02:51:48.947Z,935.25
2017-02-28T02:52:39.746Z,935.17
2017-02-28T02:53:46.288Z,935.15
2017-02-28T02:54:47.065Z,935.11
2017-02-28T02:55:43.793Z,935.08
2017-02-28T02:56:38.472Z,935.07
2017-02-28T02:57:38.288Z,935.06
2017-02-28T02:58:33.559Z,935.10
2017-02-28T02:59:40.210Z,935.04
2017-02-28T03:00:37.437Z,935.05
2017-02-28T03:01:37.319Z,935.08
2017-02-28T03:02:31.898Z,934.97
2017-02-28T03:03:37.292Z,934.86
2017-02-28T03:04:31.167Z,934.83
2017-02-28T03:05:42.142Z,934.85
2017-02-28T03:06:39.478Z,934.84
2017-02-28T03:07:47.810Z,934.84
2017-02-28T03:08:44.110Z,934.82
2017-02-28T03:09:45.252Z,934.80
2017-02-28T03:11:06.278Z,934.79
2017-02-28T03:11:43.492Z,934.82
2017-02-28T03:12:49.658Z,934.81
2017-02-28T03:14:00.193Z,934.83
2017-02-28T03:14:43.109Z,934.86
2017-02-28T03:15:47.632Z,934.86
2017-02-28T03:16:42.067Z,934.88
2017-02-28T03:17:40.162Z,934.83
2017-02-28T03:18:36.598Z,934.87
2017-02-28T03:19:45.738Z,934.88
2017-02-28T03:20:53.922Z,934.86
2017-02-28T03:21:44.549Z,934.86
2017-02-28T03:22:42.339Z,934.88
2017-02-28T03:23:39.409Z,934.89
2017-02-28T03:24:48.267Z,934.87
2017-02-28T03:25:44.412Z,934.88
2017-02-28T03:26:42.875Z,934.87
2017-02-28T03:27:53.984Z,934.86
2017-02-28T03:28:44.987Z,934.87
2017-02-28T03:29:42.136Z,934.88
2017-02-28T03:30:44.596Z,934.88
2017-02-28T03:31:48.168Z,934.88
2017-02-28T03:32:49.148Z,934.88
2017-02-28T03:33:39.495Z,934.94
2017-02-28T03:34:38.973Z,934.95
2017-02-28T03:35:43.605Z,934.98
2017-02-28T03:36:43.541Z,934.97
2017-02-28T03:37:39.641Z,935.00
2017-02-28T03:38:43.926Z,934.98
2017-02-28T03:39:50.895Z,934.96
2017-02-28T03:40:44.062Z,934.96
2017-02-28T03:41:39.838Z,934.96
2017-02-28T03:42:41.433Z,934.95
2017-02-28T03:43:38.288Z,934.95
2017-02-28T03:44:36.963Z,934.98
2017-02-28T03:45:32.678Z,935.03
2017-02-28T03:46:38.643Z,935.03
2017-02-28T03:47:34.138Z,935.01
2017-02-28T03:48:33.045Z,934.97
2017-02-28T03:49:36.359Z,935.01
2017-02-28T03:50:43.817Z,934.98
2017-02-28T03:51:36.091Z,934.98
2017-02-28T03:52:42.681Z,935.04
2017-02-28T03:53:49.829Z,934.98
2017-02-28T03:54:49.859Z,935.03
2017-02-28T03:55:38.133Z,934.99
2017-02-28T03:56:41.037Z,935.05
2017-02-28T03:57:38.142Z,935.01
2017-02-28T03:58:44.371Z,935.00
2017-02-28T03:59:42.724Z,935.03
2017-02-28T04:00:40.770Z,935.03
2017-02-28T04:01:43.564Z,934.97
2017-02-28T04:02:40.561Z,934.97
2017-02-28T04:03:41.903Z,934.92
2017-02-28T04:04:47.985Z,934.97
2017-02-28T04:05:44.133Z,934.98
2017-02-28T04:06:41.197Z,934.95
2017-02-28T04:07:39.123Z,934.97
2017-02-28T04:08:50.941Z,934.98
2017-02-28T04:09:37.769Z,934.92
2017-02-28T04:10:44.759Z,934.92
2017-02-28T04:11:40.935Z,934.86
2017-02-28T04:12:46.779Z,934.81
2017-02-28T04:13:44.071Z,934.80
2017-02-28T04:14:44.702Z,934.81
2017-02-28T04:15:42.711Z,934.82
2017-02-28T04:16:34.210Z,934.83
2017-02-28T04:17:33.741Z,934.82
2017-02-28T04:18:38.970Z,934.83
2017-02-28T04:19:20.592Z,934.85
2017-02-28T04:20:22.226Z,934.88
2017-02-28T04:21:27.085Z,934.89
2017-02-28T04:22:28.315Z,934.90
2017-02-28T04:23:35.410Z,934.89
2017-02-28T04:24:25.230Z,934.98
2017-02-28T04:25:19.304Z,935.03
2017-02-28T04:26:26.779Z,935.08
2017-02-28T04:27:23.811Z,935.10
2017-02-28T04:28:37.769Z,935.14
2017-02-28T04:29:45.819Z,935.13
2017-02-28T04:30:42.441Z,935.24
2017-02-28T04:31:32.432Z,935.40
2017-02-28T04:32:44.452Z,935.85
2017-02-28T04:33:45.021Z,936.46
2017-02-28T04:34:35.188Z,936.54
2017-02-28T04:35:38.093Z,936.51
2017-02-28T04:36:27.191Z,936.50
2017-02-28T04:37:21.457Z,936.60
2017-02-28T04:38:19.193Z,936.47
2017-02-28T04:39:16.646Z,936.55
2017-02-28T04:40:22.277Z,936.66
2017-02-28T04:41:15.826Z,936.77
2017-02-28T04:42:18.697Z,936.76
2017-02-28T04:43:20.538Z,936.74
2017-02-28T04:44:21.052Z,936.86
2017-02-28T04:45:20.031Z,937.02
2017-02-28T04:46:21.165Z,937.16
2017-02-28T04:47:16.237Z,937.18
2017-02-28T04:48:18.083Z,937.00
2017-02-28T04:49:22.894Z,937.15
2017-02-28T04:50:27.485Z,937.36
2017-02-28T04:51:16.033Z,937.63
2017-02-28T04:52:20.670Z,937.78
2017-02-28T04:53:29.450Z,937.91
2017-02-28T04:54:31.906Z,938.04
2017-02-28T04:55:33.484Z,938.02
2017-02-28T04:56:31.494Z,938.06
2017-02-28T04:57:34.963Z,938.23
2017-02-28T04:58:25.456Z,938.29
2017-02-28T04:59:25.252Z,938.46
2017-02-28T05:00:27.403Z,938.51
2017-02-28T05:01:25.662Z,938.59
2017-02-28T05:02:33.724Z,938.64
2017-02-28T05:03:23.000Z,938.58
2017-02-28T05:04:20.502Z,938.60
2017-02-28T05:05:15.953Z,938.61
2017-02-28T05:06:15.840Z,938.65
2017-02-28T05:07:15.527Z,938.65
2017-02-28T05:08:23.309Z,938.69
2017-02-28T05:09:31.296Z,938.70
2017-02-28T05:10:32.421Z,938.60
2017-02-28T05:11:23.029Z,938.70
2017-02-28T05:12:32.527Z,938.72
2017-02-28T05:13:28.020Z,938.75
2017-02-28T05:14:27.203Z,938.85
2017-02-28T05:15:22.504Z,938.84
2017-02-28T05:16:17.882Z,938.90
2017-02-28T05:17:16.786Z,938.88
2017-02-28T05:18:16.654Z,938.87
2017-02-28T05:19:26.076Z,938.99
2017-02-28T05:20:34.680Z,938.97
2017-02-28T05:21:24.770Z,938.98
2017-02-28T05:22:22.698Z,939.01
2017-02-28T05:23:16.777Z,938.93
2017-02-28T05:24:16.958Z,938.90
2017-02-28T05:25:23.517Z,938.91
2017-02-28T05:26:16.760Z,938.94
2017-02-28T05:27:20.446Z,938.98
2017-02-28T05:28:28.619Z,939.08
2017-02-28T05:29:38.880Z,939.13
2017-02-28T05:30:34.577Z,939.13
2017-02-28T05:31:23.519Z,939.11
2017-02-28T05:32:21.267Z,939.19
2017-02-28T05:33:18.093Z,939.27
2017-02-28T05:34:20.959Z,939.35
2017-02-28T05:35:24.441Z,939.45
2017-02-28T05:36:25.262Z,939.47
2017-02-28T05:37:26.080Z,939.60
2017-02-28T05:38:25.977Z,939.54
2017-02-28T05:39:14.845Z,939.59
2017-02-28T05:40:19.753Z,939.64
2017-02-28T05:41:20.656Z,939.76
2017-02-28T05:42:23.811Z,939.71
2017-02-28T05:43:15.330Z,939.71
2017-02-28T05:44:23.522Z,939.69
2017-02-28T05:45:39.352Z,939.66
2017-02-28T05:46:24.648Z,939.70
2017-02-28T05:47:18.914Z,939.69
2017-02-28T05:48:20.247Z,939.69
2017-02-28T05:49:27.666Z,939.78
2017-02-28T05:50:17.686Z,939.87
2017-02-28T05:51:20.791Z,939.91
2017-02-28T05:52:19.325Z,939.97
2017-02-28T05:53:21.577Z,940.02
2017-02-28T05:54:16.151Z,939.98
2017-02-28T05:55:18.403Z,939.97
2017-02-28T05:56:21.271Z,939.98
2017-02-28T05:57:16.254Z,939.96
2017-02-28T05:58:15.639Z,939.92
2017-02-28T05:59:16.868Z,939.92
2017-02-28T06:00:20.666Z,939.94
2017-02-28T06:01:22.220Z,940.00
2017-02-28T06:02:18.509Z,940.08
2017-02-28T06:03:17.712Z,940.06
2017-02-28T06:04:23.424Z,940.10
2017-02-28T06:05:15.436Z,940.16
2017-02-28T06:06:21.898Z,940.25
2017-02-28T06:07:22.297Z,940.28
2017-02-28T06:08:32.285Z,940.40
2017-02-28T06:09:21.216Z,940.37
2017-02-28T06:10:19.228Z,940.42
2017-02-28T06:11:20.762Z,940.37
2017-02-28T06:12:22.606Z,940.36
2017-02-28T06:13:22.961Z,940.35
2017-02-28T06:14:29.672Z,940.37
2017-02-28T06:15:28.517Z,940.47
2017-02-28T06:16:29.880Z,940.52
2017-02-28T06:17:27.833Z,940.53
2017-02-28T06:18:37.177Z,940.61
2017-02-28T06:19:17.384Z,940.56
2017-02-28T06:20:26.601Z,940.61
2017-02-28T06:21:39.558Z,940.68
2017-02-28T06:22:38.934Z,940.71
2017-02-28T06:23:52.742Z,940.76
2017-02-28T06:24:19.843Z,940.87
2017-02-28T06:25:34.999Z,940.84
2017-02-28T06:26:21.894Z,940.97
2017-02-28T06:27:29.436Z,940.96
2017-02-28T06:28:21.919Z,941.06
2017-02-28T06:29:20.460Z,941.10
2017-02-28T06:30:16.773Z,941.13
2017-02-28T06:31:18.207Z,941.14
2017-02-28T06:32:21.932Z,941.26
2017-02-28T06:33:25.080Z,941.26
2017-02-28T06:34:17.902Z,941.26
2017-02-28T06:35:29.077Z,941.30
2017-02-28T06:36:21.596Z,941.37
2017-02-28T06:37:15.648Z,941.29
2017-02-28T06:38:23.283Z,941.37
2017-02-28T06:39:25.990Z,941.40
2017-02-28T06:40:27.347Z,941.43
2017-02-28T06:41:17.836Z,941.41
2017-02-28T06:42:18.312Z,941.49
2017-02-28T06:43:25.437Z,941.52
2017-02-28T06:44:20.206Z,941.53
2017-02-28T06:45:16.901Z,941.53
2017-02-28T06:46:19.012Z,941.56
2017-02-28T06:47:23.238Z,941.61
2017-02-28T06:48:22.670Z,941.61
2017-02-28T06:49:17.391Z,941.62
2017-02-28T06:50:20.362Z,941.67
2017-02-28T06:51:25.489Z,941.70
2017-02-28T06:52:25.928Z,941.69
2017-02-28T06:53:20.129Z,941.71
2017-02-28T06:54:26.086Z,941.74
2017-02-28T06:55:22.669Z,941.74
2017-02-28T06:56:29.475Z,941.76
2017-02-28T06:57:17.700Z,941.73
2017-02-28T06:58:19.134Z,941.69
2017-02-28T06:59:20.568Z,941.72
2017-02-28T07:00:18.660Z,941.65
2017-02-28T07:01:21.490Z,941.64
2017-02-28T07:02:16.943Z,941.64
2017-02-28T07:03:19.712Z,941.65
2017-02-28T07:04:19.749Z,941.68
2017-02-28T07:05:20.672Z,941.70
2017-02-28T07:06:24.605Z,941.75
2017-02-28T07:07:17.804Z,941.79
2017-02-28T07:08:20.702Z,941.70
2017-02-28T07:09:18.410Z,941.62
2017-02-28T07:10:20.881Z,941.60
2017-02-28T07:11:31.612Z,941.57
2017-02-28T07:12:33.208Z,941.59
2017-02-28T07:13:32.011Z,941.63
2017-02-28T07:14:21.390Z,941.58
2017-02-28T07:15:19.342Z,941.59
2017-02-28T07:16:21.800Z,941.63
2017-02-28T07:17:17.909Z,941.62
2017-02-28T07:18:41.256Z,941.60
2017-02-28T07:19:17.118Z,941.62
2017-02-28T07:20:19.416Z,941.55
2017-02-28T07:21:16.988Z,941.55
2017-02-28T07:22:21.699Z,941.49
2017-02-28T07:23:42.011Z,941.54
2017-02-28T07:24:45.631Z,941.53
2017-02-28T07:26:00.542Z,941.59
2017-02-28T07:26:49.127Z,941.53
2017-02-28T07:27:38.821Z,941.48
2017-02-28T07:28:46.701Z,941.49
2017-02-28T07:29:38.099Z,941.49
2017-02-28T07:30:28.970Z,941.51
2017-02-28T07:31:48.389Z,941.54
2017-02-28T07:32:45.594Z,941.54
2017-02-28T07:33:42.704Z,941.56
2017-02-28T07:34:41.194Z,941.54
2017-02-28T07:35:39.613Z,941.55
2017-02-28T07:36:47.946Z,941.52
2017-02-28T07:37:33.761Z,941.50
2017-02-28T07:38:26.064Z,941.48
2017-02-28T07:39:25.465Z,941.50
2017-02-28T07:40:22.525Z,941.50
2017-02-28T07:41:36.430Z,941.44
2017-02-28T07:42:21.108Z,941.46
2017-02-28T07:43:29.306Z,941.52
2017-02-28T07:44:28.640Z,941.48
2017-02-28T07:45:41.673Z,941.39
2017-02-28T07:46:40.237Z,941.44
2017-02-28T07:47:39.043Z,941.47
2017-02-28T07:48:37.416Z,941.47
2017-02-28T07:49:42.300Z,941.43
2017-02-28T07:50:45.231Z,941.38
2017-02-28T07:51:38.175Z,941.39
2017-02-28T07:52:52.075Z,941.36
2017-02-28T07:53:48.453Z,941.40
2017-02-28T07:54:34.515Z,941.39
2017-02-28T07:56:40.469Z,941.35
2017-02-28T07:57:19.208Z,941.33
2017-02-28T07:57:52.638Z,941.37
2017-02-28T07:58:53.248Z,941.37
2017-02-28T07:59:42.661Z,941.35
2017-02-28T08:00:45.006Z,941.35
2017-02-28T08:01:44.504Z,941.31
2017-02-28T08:02:37.876Z,941.38
2017-02-28T08:03:40.657Z,941.37
2017-02-28T08:04:42.907Z,941.39
2017-02-28T08:05:40.956Z,941.38
2017-02-28T08:06:47.627Z,941.42
2017-02-28T08:07:34.036Z,941.42
2017-02-28T08:08:38.553Z,941.40
2017-02-28T08:09:48.549Z,941.44
2017-02-28T08:10:38.085Z,941.43
2017-02-28T08:11:50.612Z,941.42
2017-02-28T08:12:39.961Z,941.39
2017-02-28T08:13:45.054Z,941.42
2017-02-28T08:14:41.815Z,941.44
2017-02-28T08:15:47.408Z,941.42
2017-02-28T08:16:42.788Z,941.41
2017-02-28T08:17:39.926Z,941.39
2017-02-28T08:18:42.326Z,941.42
2017-02-28T08:19:34.919Z,941.42
2017-02-28T08:20:48.866Z,941.43
2017-02-28T08:21:51.314Z,941.45
2017-02-28T08:22:46.127Z,941.47
2017-02-28T08:23:44.076Z,941.40
2017-02-28T08:24:39.462Z,941.41
2017-02-28T08:25:39.793Z,941.43
2017-02-28T08:26:46.845Z,941.41
2017-02-28T08:27:41.090Z,941.39
2017-02-28T08:28:38.201Z,941.39
2017-02-28T08:29:42.199Z,941.45
2017-02-28T08:30:36.017Z,941.39
2017-02-28T08:31:44.561Z,941.36
2017-02-28T08:32:53.667Z,941.37
2017-02-28T08:33:49.352Z,941.40
2017-02-28T08:34:45.169Z,941.38
2017-02-28T08:35:53.997Z,941.40
2017-02-28T08:36:41.018Z,941.36
2017-02-28T08:37:45.280Z,941.34
2017-02-28T08:38:39.304Z,941.34
2017-02-28T08:40:01.174Z,941.36
2017-02-28T08:40:50.588Z,941.37
2017-02-28T08:41:49.997Z,941.34
2017-02-28T08:42:50.269Z,941.30
2017-02-28T08:43:34.144Z,941.33
2017-02-28T08:44:43.835Z,941.30
2017-02-28T08:45:36.742Z,941.33
2017-02-28T08:46:50.906Z,941.29
2017-02-28T08:48:01.440Z,941.27
2017-02-28T08:49:45.166Z,941.25
2017-02-28T08:50:49.607Z,941.29
2017-02-28T08:51:44.988Z,941.29
2017-02-28T08:52:47.667Z,941.32
2017-02-28T08:53:40.131Z,941.27
2017-02-28T08:54:37.792Z,941.28
2017-02-28T08:55:49.995Z,941.28
2017-02-28T08:56:52.420Z,941.26
2017-02-28T08:57:56.102Z,941.30
2017-02-28T08:58:51.074Z,941.30
2017-02-28T08:59:38.265Z,941.28
2017-02-28T09:01:05.279Z,941.27
2017-02-28T09:01:48.490Z,941.26
2017-02-28T09:02:43.671Z,941.19
2017-02-28T09:03:41.224Z,941.19
2017-02-28T09:04:43.025Z,941.11
2017-02-28T09:05:40.270Z,941.14
2017-02-28T09:06:49.666Z,941.09
2017-02-28T09:07:40.172Z,941.08
2017-02-28T09:08:38.442Z,941.06
2017-02-28T09:09:50.459Z,941.04
2017-02-28T09:10:40.594Z,941.08
2017-02-28T09:11:40.707Z,941.11
2017-02-28T09:13:02.037Z,941.11
2017-02-28T09:13:41.898Z,941.12
2017-02-28T09:14:57.973Z,941.05
2017-02-28T09:15:51.463Z,941.10
2017-02-28T09:16:45.065Z,941.03
2017-02-28T09:17:40.944Z,941.06
2017-02-28T09:18:45.609Z,941.04
2017-02-28T09:19:43.625Z,941.06
2017-02-28T09:20:45.116Z,941.01
2017-02-28T09:21:51.362Z,941.02
2017-02-28T09:22:43.654Z,941.00
2017-02-28T09:23:41.081Z,940.99
2017-02-28T09:24:44.509Z,941.03
2017-02-28T09:25:46.289Z,940.97
2017-02-28T09:26:42.240Z,940.99
2017-02-28T09:27:43.760Z,940.98
2017-02-28T09:28:49.688Z,940.97
2017-02-28T09:29:50.500Z,940.95
2017-02-28T09:30:49.857Z,941.00
2017-02-28T09:31:44.502Z,941.00
2017-02-28T09:32:46.318Z,941.01
2017-02-28T09:33:46.435Z,941.02
2017-02-28T09:34:51.667Z,940.96
2017-02-28T09:35:36.712Z,940.98
2017-02-28T09:36:50.922Z,940.97
2017-02-28T09:37:44.586Z,940.98
2017-02-28T09:38:43.651Z,940.96
2017-02-28T09:39:39.746Z,940.88
2017-02-28T09:40:50.759Z,940.85
2017-02-28T09:41:56.903Z,940.76
2017-02-28T09:42:51.775Z,940.78
2017-02-28T09:43:37.659Z,940.74
2017-02-28T09:44:47.754Z,940.68
2017-02-28T09:45:49.449Z,940.72
2017-02-28T09:46:43.687Z,940.72
2017-02-28T09:47:44.388Z,940.77
2017-02-28T09:48:46.064Z,940.77
2017-02-28T09:49:37.605Z,940.74
2017-02-28T09:50:52.823Z,940.69
2017-02-28T09:51:44.150Z,940.66
2017-02-28T09:52:37.774Z,940.67
2017-02-28T09:53:43.507Z,940.65
2017-02-28T09:54:42.670Z,940.65
2017-02-28T09:55:43.529Z,940.62
2017-02-28T09:56:46.691Z,940.61
2017-02-28T09:57:50.753Z,940.55
2017-02-28T09:58:35.060Z,940.51
2017-02-28T09:59:47.172Z,940.49
2017-02-28T10:00:40.747Z,940.50
2017-02-28T10:01:51.519Z,940.52
2017-02-28T10:02:48.381Z,940.51
2017-02-28T10:03:46.454Z,940.49
2017-02-28T10:04:44.120Z,940.44
2017-02-28T10:05:50.186Z,940.50
2017-02-28T10:06:37.698Z,940.37
2017-02-28T10:07:51.901Z,940.43
2017-02-28T10:08:49.027Z,940.46
2017-02-28T10:09:44.139Z,940.42
2017-02-28T10:10:32.672Z,940.51
2017-02-28T10:12:04.054Z,940.48
2017-02-28T10:12:48.328Z,940.48
2017-02-28T10:13:43.377Z,940.47
2017-02-28T10:14:45.275Z,940.46
2017-02-28T10:15:43.567Z,940.42
2017-02-28T10:16:37.688Z,940.43
2017-02-28T10:17:53.956Z,940.32
2017-02-28T10:18:51.786Z,940.28
2017-02-28T10:19:39.409Z,940.20
2017-02-28T10:20:46.290Z,940.18
2017-02-28T10:21:45.547Z,940.17
2017-02-28T10:22:51.162Z,940.16
2017-02-28T10:23:53.167Z,940.13
2017-02-28T10:25:53.769Z,940.12
2017-02-28T10:26:42.176Z,940.19
2017-02-28T10:27:37.414Z,940.20
2017-02-28T10:28:44.587Z,940.15
2017-02-28T10:29:43.635Z,940.20
2017-02-28T10:30:35.287Z,940.21
2017-02-28T10:31:32.558Z,940.26
2017-02-28T10:32:45.429Z,940.29
2017-02-28T10:33:51.989Z,940.25
2017-02-28T10:35:49.530Z,940.24
2017-02-28T10:36:39.387Z,940.24
2017-02-28T10:37:37.689Z,940.19
2017-02-28T10:38:37.444Z,940.14
2017-02-28T10:39:39.503Z,940.11
2017-02-28T10:40:57.627Z,940.14
2017-02-28T10:41:47.243Z,940.12
2017-02-28T10:42:37.905Z,940.12
2017-02-28T10:43:46.342Z,940.12
2017-02-28T10:44:47.050Z,940.08
2017-02-28T10:45:46.360Z,940.03
2017-02-28T10:46:50.697Z,940.01
2017-02-28T10:48:02.621Z,939.97
2017-02-28T10:48:50.595Z,939.93
2017-02-28T10:49:30.375Z,939.93
2017-02-28T10:50:44.591Z,939.89
2017-02-28T10:51:32.993Z,939.87
2017-02-28T10:52:40.033Z,939.82
2017-02-28T10:53:47.388Z,939.78
2017-02-28T10:54:52.000Z,939.75
2017-02-28T10:55:51.072Z,939.76
2017-02-28T10:56:46.901Z,939.72
2017-02-28T10:57:39.928Z,939.70
2017-02-28T10:58:45.135Z,939.73
2017-02-28T10:59:46.503Z,939.72
2017-02-28T11:00:43.121Z,939.62
2017-02-28T11:01:43.229Z,939.63
2017-02-28T11:02:51.373Z,939.54
2017-02-28T11:03:42.596Z,939.51
2017-02-28T11:04:44.801Z,939.51
2017-02-28T11:05:41.908Z,939.51
2017-02-28T11:06:51.726Z,939.49
2017-02-28T11:07:43.294Z,939.46
2017-02-28T11:08:45.312Z,939.52
2017-02-28T11:09:53.538Z,939.47
2017-02-28T11:10:51.152Z,939.45
2017-02-28T11:11:46.919Z,939.49
2017-02-28T11:12:43.178Z,939.49
2017-02-28T11:13:42.627Z,939.48
2017-02-28T11:14:46.088Z,939.51
2017-02-28T11:15:48.563Z,939.52
2017-02-28T11:16:44.560Z,939.38
2017-02-28T11:17:45.336Z,939.31
2017-02-28T11:18:51.562Z,939.28
2017-02-28T11:19:38.411Z,939.25
2017-02-28T11:20:47.890Z,939.19
2017-02-28T11:21:48.305Z,939.20
2017-02-28T11:22:48.175Z,939.16
2017-02-28T11:23:54.418Z,939.11
2017-02-28T11:24:33.900Z,939.01
2017-02-28T11:26:16.217Z,938.96
2017-02-28T11:26:33.986Z,938.89
2017-02-28T11:27:53.100Z,938.73
2017-02-28T11:28:44.691Z,938.68
2017-02-28T11:29:52.362Z,938.60
2017-02-28T11:30:50.652Z,938.56
2017-02-28T11:31:49.563Z,938.48
2017-02-28T11:32:45.412Z,938.38
2017-02-28T11:33:50.826Z,938.41
2017-02-28T11:35:44.068Z,938.51
2017-02-28T11:36:39.909Z,938.50
2017-02-28T11:37:50.392Z,938.63
2017-02-28T11:38:39.287Z,938.71
2017-02-28T11:39:39.647Z,938.71
2017-02-28T11:40:37.230Z,938.63
2017-02-28T11:41:51.812Z,938.54
2017-02-28T11:42:46.924Z,938.47
2017-02-28T11:43:40.922Z,938.44
2017-02-28T11:44:39.726Z,938.37
2017-02-28T11:45:43.497Z,938.41
2017-02-28T11:46:44.869Z,938.54
2017-02-28T11:47:48.756Z,938.60
2017-02-28T11:48:39.914Z,938.68
2017-02-28T11:49:47.307Z,938.59
2017-02-28T11:51:46.297Z,938.47
2017-02-28T11:51:51.902Z,938.41
2017-02-28T11:52:56.276Z,938.39
2017-02-28T11:53:52.301Z,938.43
2017-02-28T11:54:49.249Z,938.39
2017-02-28T11:55:45.529Z,938.32
2017-02-28T11:56:45.687Z,938.33
2017-02-28T11:57:49.886Z,938.30
2017-02-28T11:58:47.768Z,938.24
2017-02-28T11:59:50.944Z,938.26
2017-02-28T12:00:46.322Z,938.19
2017-02-28T12:01:42.284Z,938.20
2017-02-28T12:02:49.649Z,938.15
2017-02-28T12:03:47.599Z,938.16
2017-02-28T12:04:50.956Z,938.05
2017-02-28T12:05:38.864Z,937.98
2017-02-28T12:06:48.927Z,938.00
2017-02-28T12:07:50.953Z,937.98
2017-02-28T12:08:39.915Z,938.04
2017-02-28T12:09:48.653Z,938.10
2017-02-28T12:10:51.383Z,938.03
2017-02-28T12:11:47.560Z,937.95
2017-02-28T12:12:48.549Z,937.95
2017-02-28T12:13:49.899Z,937.88
2017-02-28T12:14:52.674Z,937.90
2017-02-28T12:16:03.983Z,937.89
2017-02-28T12:17:07.179Z,937.79
2017-02-28T12:17:54.920Z,937.73
2017-02-28T12:18:50.884Z,937.74
2017-02-28T12:19:48.160Z,937.70
2017-02-28T12:21:02.702Z,937.74
2017-02-28T12:21:47.781Z,937.75
2017-02-28T12:23:03.568Z,937.81
2017-02-28T12:23:51.132Z,937.85
2017-02-28T12:25:00.705Z,937.84
2017-02-28T12:26:04.614Z,937.80
2017-02-28T12:26:51.192Z,937.82
2017-02-28T12:28:06.135Z,937.82
2017-02-28T12:28:49.982Z,937.79
2017-02-28T12:29:50.921Z,937.72
2017-02-28T12:30:50.017Z,937.67
2017-02-28T12:32:04.095Z,937.63
2017-02-28T12:33:07.044Z,937.55
2017-02-28T12:33:50.990Z,937.55